sensor_id;sensor_type;location;lat;lon;timestamp;pressure;altitude;pressure_sealevel;temperature;humidity
41062;BME280;26812;42.662;23.352;2022-09-29T00:00:43;94039.06;;;17.95;67.52
41062;BME280;26812;42.662;23.352;2022-09-29T00:03:09;94034.94;;;17.46;67.26
41062;BME280;26812;42.662;23.352;2022-09-29T00:05:34;94041.81;;;17.26;68.15
41062;BME280;26812;42.662;23.352;2022-09-29T00:08:00;94026.22;;;17.16;67.94
41062;BME280;26812;42.662;23.352;2022-09-29T00:10:25;94060.66;;;17.56;68.11
41062;BME280;26812;42.662;23.352;2022-09-29T00:12:51;94057.25;;;17.69;68.87
41062;BME280;26812;42.662;23.352;2022-09-29T00:15:16;94035.13;;;17.78;68.63
41062;BME280;26812;42.662;23.352;2022-09-29T00:17:41;94040.22;;;17.94;67.31
41062;BME280;26812;42.662;23.352;2022-09-29T00:20:07;94024.06;;;17.46;67.47
41062;BME280;26812;42.662;23.352;2022-09-29T00:22:33;94051.44;;;17.75;67.37
41062;BME280;26812;42.662;23.352;2022-09-29T00:24:58;94066.22;;;17.74;68.23
41062;BME280;26812;42.662;23.352;2022-09-29T00:27:24;94064.28;;;17.74;69.04
41062;BME280;26812;42.662;23.352;2022-09-29T00:29:56;94049.38;;;17.57;67.19
41062;BME280;26812;42.662;23.352;2022-09-29T00:32:21;94018.28;;;16.93;67.67
41062;BME280;26812;42.662;23.352;2022-09-29T00:34:47;94028.56;;;17.17;69.67
41062;BME280;26812;42.662;23.352;2022-09-29T00:37:12;94027.19;;;17.48;68.17
41062;BME280;26812;42.662;23.352;2022-09-29T00:39:38;94032.69;;;17.66;67.72
41062;BME280;26812;42.662;23.352;2022-09-29T00:42:04;94041.47;;;17.34;67.90
41062;BME280;26812;42.662;23.352;2022-09-29T00:47:15;94039.22;;;17.47;68.95
41062;BME280;26812;42.662;23.352;2022-09-29T00:49:46;94048.00;;;17.19;69.65
41062;BME280;26812;42.662;23.352;2022-09-29T00:52:21;94044.53;;;17.22;70.36
41062;BME280;26812;42.662;23.352;2022-09-29T00:55:11;94037.22;;;17.37;70.04
41062;BME280;26812;42.662;23.352;2022-09-29T00:57:43;94046.53;;;17.32;70.06
41062;BME280;26812;42.662;23.352;2022-09-29T01:00:13;94043.72;;;17.18;69.65
41062;BME280;26812;42.662;23.352;2022-09-29T01:02:44;94028.94;;;17.16;70.88
41062;BME280;26812;42.662;23.352;2022-09-29T01:05:16;94019.25;;;17.22;70.66
41062;BME280;26812;42.662;23.352;2022-09-29T01:07:45;94025.53;;;17.33;69.79
41062;BME280;26812;42.662;23.352;2022-09-29T01:10:12;94030.50;;;17.17;70.52
41062;BME280;26812;42.662;23.352;2022-09-29T01:12:42;94042.94;;;16.66;70.57
41062;BME280;26812;42.662;23.352;2022-09-29T01:15:10;94032.84;;;16.67;71.25
41062;BME280;26812;42.662;23.352;2022-09-29T01:17:36;94026.41;;;16.86;71.25
41062;BME280;26812;42.662;23.352;2022-09-29T01:20:17;94012.06;;;16.92;71.48
41062;BME280;26812;42.662;23.352;2022-09-29T01:26:02;94031.69;;;17.23;70.13
41062;BME280;26812;42.662;23.352;2022-09-29T01:34:10;94027.84;;;17.27;69.46
41062;BME280;26812;42.662;23.352;2022-09-29T01:42:05;94045.91;;;16.98;70.79
41062;BME280;26812;42.662;23.352;2022-09-29T01:44:37;94045.78;;;16.40;72.71
41062;BME280;26812;42.662;23.352;2022-09-29T01:47:37;94058.53;;;16.32;72.82
41062;BME280;26812;42.662;23.352;2022-09-29T01:50:15;94049.69;;;16.42;73.82
41062;BME280;26812;42.662;23.352;2022-09-29T01:52:52;94059.31;;;16.33;74.53
41062;BME280;26812;42.662;23.352;2022-09-29T01:55:23;94061.75;;;16.45;74.34
41062;BME280;26812;42.662;23.352;2022-09-29T01:57:53;94051.69;;;16.49;73.78
41062;BME280;26812;42.662;23.352;2022-09-29T02:00:21;94059.66;;;16.68;73.15
41062;BME280;26812;42.662;23.352;2022-09-29T02:05:55;94062.81;;;16.33;73.86
41062;BME280;26812;42.662;23.352;2022-09-29T02:11:03;94061.38;;;16.46;74.72
41062;BME280;26812;42.662;23.352;2022-09-29T02:13:33;94061.50;;;16.57;74.33
41062;BME280;26812;42.662;23.352;2022-09-29T02:16:03;94069.53;;;16.46;74.25
41062;BME280;26812;42.662;23.352;2022-09-29T02:18:36;94048.78;;;16.28;74.60
41062;BME280;26812;42.662;23.352;2022-09-29T02:21:04;94042.56;;;16.27;75.01
41062;BME280;26812;42.662;23.352;2022-09-29T02:23:30;94064.91;;;16.51;74.91
41062;BME280;26812;42.662;23.352;2022-09-29T02:25:56;94066.06;;;16.50;74.23
41062;BME280;26812;42.662;23.352;2022-09-29T02:28:23;94070.25;;;16.40;74.58
41062;BME280;26812;42.662;23.352;2022-09-29T02:30:49;94052.75;;;16.37;74.84
41062;BME280;26812;42.662;23.352;2022-09-29T02:33:23;94074.22;;;16.50;73.83
41062;BME280;26812;42.662;23.352;2022-09-29T02:39:02;94084.63;;;16.03;76.52
41062;BME280;26812;42.662;23.352;2022-09-29T02:52:49;94068.66;;;16.35;75.68
41062;BME280;26812;42.662;23.352;2022-09-29T02:55:20;94073.44;;;16.12;75.70
41062;BME280;26812;42.662;23.352;2022-09-29T03:00:27;94080.56;;;15.90;76.14
41062;BME280;26812;42.662;23.352;2022-09-29T03:02:52;94061.72;;;16.04;75.80
41062;BME280;26812;42.662;23.352;2022-09-29T03:05:20;94065.13;;;16.31;73.75
41062;BME280;26812;42.662;23.352;2022-09-29T03:07:46;94046.72;;;16.18;74.07
41062;BME280;26812;42.662;23.352;2022-09-29T03:10:14;94041.75;;;16.23;73.46
41062;BME280;26812;42.662;23.352;2022-09-29T03:12:39;94011.50;;;16.25;73.55
41062;BME280;26812;42.662;23.352;2022-09-29T03:15:06;94012.50;;;16.09;73.07
41062;BME280;26812;42.662;23.352;2022-09-29T03:17:32;94016.72;;;16.07;73.38
41062;BME280;26812;42.662;23.352;2022-09-29T03:19:57;94013.34;;;16.17;73.08
41062;BME280;26812;42.662;23.352;2022-09-29T03:22:23;94027.94;;;16.42;72.51
41062;BME280;26812;42.662;23.352;2022-09-29T03:24:48;94041.44;;;16.32;72.98
41062;BME280;26812;42.662;23.352;2022-09-29T03:27:14;94070.06;;;16.22;72.42
41062;BME280;26812;42.662;23.352;2022-09-29T03:29:40;94067.91;;;16.01;73.15
41062;BME280;26812;42.662;23.352;2022-09-29T03:32:05;94063.66;;;16.04;73.94
41062;BME280;26812;42.662;23.352;2022-09-29T03:34:32;94059.44;;;15.73;72.73
41062;BME280;26812;42.662;23.352;2022-09-29T03:36:57;94058.16;;;15.97;72.35
41062;BME280;26812;42.662;23.352;2022-09-29T03:39:23;94072.84;;;16.26;71.25
41062;BME280;26812;42.662;23.352;2022-09-29T03:41:49;94063.94;;;16.29;72.83
41062;BME280;26812;42.662;23.352;2022-09-29T03:44:14;94064.31;;;16.27;72.49
41062;BME280;26812;42.662;23.352;2022-09-29T03:46:40;94062.09;;;16.40;71.25
41062;BME280;26812;42.662;23.352;2022-09-29T03:49:09;94080.94;;;15.89;73.61
41062;BME280;26812;42.662;23.352;2022-09-29T03:51:34;94063.88;;;15.88;73.92
41062;BME280;26812;42.662;23.352;2022-09-29T03:54:00;94067.19;;;16.08;73.86
41062;BME280;26812;42.662;23.352;2022-09-29T03:56:25;94076.25;;;16.19;73.33
41062;BME280;26812;42.662;23.352;2022-09-29T03:58:51;94076.34;;;15.93;72.90
41062;BME280;26812;42.662;23.352;2022-09-29T04:01:16;94082.25;;;15.68;74.81
41062;BME280;26812;42.662;23.352;2022-09-29T04:03:41;94076.09;;;15.71;74.68
41062;BME280;26812;42.662;23.352;2022-09-29T04:06:07;94085.88;;;15.79;74.78
41062;BME280;26812;42.662;23.352;2022-09-29T04:08:35;94060.22;;;15.73;74.38
41062;BME280;26812;42.662;23.352;2022-09-29T04:11:01;94057.34;;;15.93;74.16
41062;BME280;26812;42.662;23.352;2022-09-29T04:13:26;94076.47;;;16.03;73.56
41062;BME280;26812;42.662;23.352;2022-09-29T04:15:57;94087.38;;;16.07;74.36
41062;BME280;26812;42.662;23.352;2022-09-29T04:18:22;94086.66;;;16.13;74.03
41062;BME280;26812;42.662;23.352;2022-09-29T04:20:48;94071.56;;;16.16;73.80
41062;BME280;26812;42.662;23.352;2022-09-29T04:23:14;94091.00;;;16.22;72.80
41062;BME280;26812;42.662;23.352;2022-09-29T04:25:40;94088.13;;;16.04;73.79
41062;BME280;26812;42.662;23.352;2022-09-29T04:28:05;94063.75;;;15.77;74.85
41062;BME280;26812;42.662;23.352;2022-09-29T04:30:31;94062.41;;;15.34;76.06
41062;BME280;26812;42.662;23.352;2022-09-29T04:32:56;94077.41;;;15.28;75.67
41062;BME280;26812;42.662;23.352;2022-09-29T04:35:22;94076.06;;;14.88;78.35
41062;BME280;26812;42.662;23.352;2022-09-29T04:37:47;94082.69;;;15.17;78.05
41062;BME280;26812;42.662;23.352;2022-09-29T04:40:13;94072.56;;;14.88;78.34
41062;BME280;26812;42.662;23.352;2022-09-29T04:42:38;94060.84;;;14.38;79.77
41062;BME280;26812;42.662;23.352;2022-09-29T04:45:04;94082.97;;;14.40;81.43
41062;BME280;26812;42.662;23.352;2022-09-29T04:47:33;94068.47;;;14.52;80.88
41062;BME280;26812;42.662;23.352;2022-09-29T04:49:58;94069.63;;;14.74;78.53
41062;BME280;26812;42.662;23.352;2022-09-29T04:52:24;94078.19;;;14.76;79.12
41062;BME280;26812;42.662;23.352;2022-09-29T04:54:49;94099.53;;;15.04;77.76
41062;BME280;26812;42.662;23.352;2022-09-29T04:57:15;94097.63;;;14.81;78.58
41062;BME280;26812;42.662;23.352;2022-09-29T04:59:41;94067.44;;;14.83;78.74
41062;BME280;26812;42.662;23.352;2022-09-29T05:02:06;94072.09;;;15.09;77.15
41062;BME280;26812;42.662;23.352;2022-09-29T05:04:31;94076.97;;;14.73;77.64
41062;BME280;26812;42.662;23.352;2022-09-29T05:06:57;94063.09;;;15.01;76.95
41062;BME280;26812;42.662;23.352;2022-09-29T05:09:22;94056.38;;;15.21;76.28
41062;BME280;26812;42.662;23.352;2022-09-29T05:11:48;94061.78;;;15.48;76.17
41062;BME280;26812;42.662;23.352;2022-09-29T05:14:13;94057.38;;;15.63;75.85
41062;BME280;26812;42.662;23.352;2022-09-29T05:16:38;94041.53;;;15.68;74.68
41062;BME280;26812;42.662;23.352;2022-09-29T05:19:04;94062.63;;;15.82;73.20
41062;BME280;26812;42.662;23.352;2022-09-29T05:21:29;94065.44;;;15.59;73.89
41062;BME280;26812;42.662;23.352;2022-09-29T05:23:55;94080.13;;;15.84;74.31
41062;BME280;26812;42.662;23.352;2022-09-29T05:26:21;94040.09;;;15.21;75.90
41062;BME280;26812;42.662;23.352;2022-09-29T05:28:47;94057.94;;;15.49;74.86
41062;BME280;26812;42.662;23.352;2022-09-29T05:31:13;94055.09;;;15.68;74.74
41062;BME280;26812;42.662;23.352;2022-09-29T05:33:39;94048.94;;;15.71;74.53
41062;BME280;26812;42.662;23.352;2022-09-29T05:36:07;94068.84;;;16.16;74.33
41062;BME280;26812;42.662;23.352;2022-09-29T05:38:33;94050.63;;;16.20;73.34
41062;BME280;26812;42.662;23.352;2022-09-29T05:41:07;94045.38;;;16.38;72.67
41062;BME280;26812;42.662;23.352;2022-09-29T05:43:34;94055.06;;;16.76;71.48
41062;BME280;26812;42.662;23.352;2022-09-29T05:46:04;94088.84;;;16.75;70.05
41062;BME280;26812;42.662;23.352;2022-09-29T05:48:30;94092.09;;;16.51;70.80
41062;BME280;26812;42.662;23.352;2022-09-29T05:50:59;94091.91;;;16.66;71.15
41062;BME280;26812;42.662;23.352;2022-09-29T05:53:25;94092.06;;;16.84;70.66
41062;BME280;26812;42.662;23.352;2022-09-29T05:55:51;94109.34;;;17.10;69.74
41062;BME280;26812;42.662;23.352;2022-09-29T05:58:16;94110.91;;;17.11;69.60
41062;BME280;26812;42.662;23.352;2022-09-29T06:00:42;94086.41;;;17.11;70.25
41062;BME280;26812;42.662;23.352;2022-09-29T06:03:07;94083.06;;;17.28;68.61
41062;BME280;26812;42.662;23.352;2022-09-29T06:05:37;94099.19;;;17.54;68.18
41062;BME280;26812;42.662;23.352;2022-09-29T06:08:02;94090.59;;;17.52;68.55
41062;BME280;26812;42.662;23.352;2022-09-29T06:10:28;94111.25;;;17.60;67.52
41062;BME280;26812;42.662;23.352;2022-09-29T06:12:53;94129.41;;;17.42;65.86
41062;BME280;26812;42.662;23.352;2022-09-29T06:15:19;94114.72;;;17.50;67.29
41062;BME280;26812;42.662;23.352;2022-09-29T06:17:44;94112.13;;;17.75;66.45
41062;BME280;26812;42.662;23.352;2022-09-29T06:20:09;94116.94;;;17.96;65.45
41062;BME280;26812;42.662;23.352;2022-09-29T06:22:36;94117.28;;;17.84;66.74
41062;BME280;26812;42.662;23.352;2022-09-29T06:25:01;94111.88;;;18.02;66.43
41062;BME280;26812;42.662;23.352;2022-09-29T06:27:27;94089.75;;;18.07;65.21
41062;BME280;26812;42.662;23.352;2022-09-29T06:29:52;94104.63;;;18.38;63.54
41062;BME280;26812;42.662;23.352;2022-09-29T06:32:18;94124.13;;;18.47;62.48
41062;BME280;26812;42.662;23.352;2022-09-29T06:34:43;94113.22;;;18.47;61.45
41062;BME280;26812;42.662;23.352;2022-09-29T06:37:27;94109.72;;;18.43;63.30
41062;BME280;26812;42.662;23.352;2022-09-29T06:39:59;94119.50;;;18.65;61.48
41062;BME280;26812;42.662;23.352;2022-09-29T06:42:24;94120.72;;;18.92;60.49
41062;BME280;26812;42.662;23.352;2022-09-29T06:44:50;94135.97;;;19.18;59.50
41062;BME280;26812;42.662;23.352;2022-09-29T06:47:15;94126.97;;;19.25;59.51
41062;BME280;26812;42.662;23.352;2022-09-29T06:49:41;94124.25;;;19.21;57.88
41062;BME280;26812;42.662;23.352;2022-09-29T06:52:07;94124.25;;;18.97;58.68
41062;BME280;26812;42.662;23.352;2022-09-29T06:54:33;94123.47;;;19.03;59.05
41062;BME280;26812;42.662;23.352;2022-09-29T06:56:58;94127.38;;;19.23;58.72
41062;BME280;26812;42.662;23.352;2022-09-29T06:59:29;94140.25;;;19.27;58.27
41062;BME280;26812;42.662;23.352;2022-09-29T07:01:55;94145.31;;;19.49;58.00
41062;BME280;26812;42.662;23.352;2022-09-29T07:04:21;94153.91;;;19.66;57.30
41062;BME280;26812;42.662;23.352;2022-09-29T07:06:47;94161.72;;;19.71;57.52
41062;BME280;26812;42.662;23.352;2022-09-29T07:09:13;94162.50;;;19.68;58.33
41062;BME280;26812;42.662;23.352;2022-09-29T07:11:42;94161.28;;;19.83;57.83
41062;BME280;26812;42.662;23.352;2022-09-29T07:14:12;94149.56;;;19.90;57.80
41062;BME280;26812;42.662;23.352;2022-09-29T07:16:38;94156.97;;;19.89;57.33
41062;BME280;26812;42.662;23.352;2022-09-29T07:19:03;94147.09;;;20.34;56.99
41062;BME280;26812;42.662;23.352;2022-09-29T07:21:29;94130.34;;;20.14;55.40
41062;BME280;26812;42.662;23.352;2022-09-29T07:23:54;94128.34;;;20.33;55.22
41062;BME280;26812;42.662;23.352;2022-09-29T07:26:20;94140.78;;;20.55;54.72
41062;BME280;26812;42.662;23.352;2022-09-29T07:28:47;94137.28;;;20.51;54.22
41062;BME280;26812;42.662;23.352;2022-09-29T07:31:15;94140.19;;;20.89;54.16
41062;BME280;26812;42.662;23.352;2022-09-29T07:33:42;94123.06;;;20.74;53.22
41062;BME280;26812;42.662;23.352;2022-09-29T07:36:07;94135.19;;;20.76;53.58
41062;BME280;26812;42.662;23.352;2022-09-29T07:38:33;94132.28;;;21.01;53.69
41062;BME280;26812;42.662;23.352;2022-09-29T07:40:59;94145.47;;;21.24;53.43
41062;BME280;26812;42.662;23.352;2022-09-29T07:43:26;94139.31;;;21.58;52.55
41062;BME280;26812;42.662;23.352;2022-09-29T07:45:51;94136.06;;;21.25;52.35
41062;BME280;26812;42.662;23.352;2022-09-29T07:48:17;94140.69;;;21.32;52.43
41062;BME280;26812;42.662;23.352;2022-09-29T07:50:43;94142.78;;;21.62;51.57
41062;BME280;26812;42.662;23.352;2022-09-29T07:53:10;94152.88;;;21.27;52.58
41062;BME280;26812;42.662;23.352;2022-09-29T07:55:36;94149.47;;;21.61;52.06
41062;BME280;26812;42.662;23.352;2022-09-29T07:58:01;94164.81;;;21.92;50.93
41062;BME280;26812;42.662;23.352;2022-09-29T08:00:28;94155.88;;;21.88;50.50
41062;BME280;26812;42.662;23.352;2022-09-29T08:03:05;94159.97;;;21.66;50.75
41062;BME280;26812;42.662;23.352;2022-09-29T08:05:34;94169.91;;;21.94;50.02
41062;BME280;26812;42.662;23.352;2022-09-29T08:08:03;94174.13;;;22.02;50.81
41062;BME280;26812;42.662;23.352;2022-09-29T08:10:31;94167.19;;;22.31;49.74
41062;BME280;26812;42.662;23.352;2022-09-29T08:12:57;94171.72;;;22.11;49.04
41062;BME280;26812;42.662;23.352;2022-09-29T08:15:23;94186.34;;;21.94;50.74
41062;BME280;26812;42.662;23.352;2022-09-29T08:17:53;94159.81;;;21.84;51.39
41062;BME280;26812;42.662;23.352;2022-09-29T08:20:26;94181.06;;;22.17;49.71
41062;BME280;26812;42.662;23.352;2022-09-29T08:22:51;94184.38;;;22.39;49.27
41062;BME280;26812;42.662;23.352;2022-09-29T08:25:18;94192.81;;;22.52;48.47
41062;BME280;26812;42.662;23.352;2022-09-29T08:27:43;94189.94;;;22.62;49.31
41062;BME280;26812;42.662;23.352;2022-09-29T08:30:11;94179.25;;;22.72;49.41
41062;BME280;26812;42.662;23.352;2022-09-29T08:32:36;94184.22;;;22.84;48.97
41062;BME280;26812;42.662;23.352;2022-09-29T08:35:09;94184.16;;;22.87;49.50
41062;BME280;26812;42.662;23.352;2022-09-29T08:37:35;94189.44;;;23.32;47.09
41062;BME280;26812;42.662;23.352;2022-09-29T08:40:00;94195.84;;;23.49;46.47
41062;BME280;26812;42.662;23.352;2022-09-29T08:42:47;94194.63;;;23.27;47.75
41062;BME280;26812;42.662;23.352;2022-09-29T08:45:26;94185.81;;;22.81;48.43
41062;BME280;26812;42.662;23.352;2022-09-29T08:48:08;94185.06;;;22.81;49.06
41062;BME280;26812;42.662;23.352;2022-09-29T08:50:55;94184.69;;;22.75;49.10
41062;BME280;26812;42.662;23.352;2022-09-29T08:53:22;94189.94;;;22.66;48.70
41062;BME280;26812;42.662;23.352;2022-09-29T08:55:59;94188.03;;;22.59;48.36
41062;BME280;26812;42.662;23.352;2022-09-29T08:58:26;94183.91;;;22.03;51.55
41062;BME280;26812;42.662;23.352;2022-09-29T09:01:22;94189.81;;;22.01;51.57
41062;BME280;26812;42.662;23.352;2022-09-29T09:14:53;94183.81;;;22.17;51.22
41062;BME280;26812;42.662;23.352;2022-09-29T09:20:35;94168.16;;;22.14;50.00
41062;BME280;26812;42.662;23.352;2022-09-29T09:23:19;94175.44;;;21.90;48.96
41062;BME280;26812;42.662;23.352;2022-09-29T09:25:50;94177.19;;;22.15;48.89
41062;BME280;26812;42.662;23.352;2022-09-29T09:30:57;94184.38;;;22.70;49.39
41062;BME280;26812;42.662;23.352;2022-09-29T09:35:59;94176.34;;;22.52;46.98
41062;BME280;26812;42.662;23.352;2022-09-29T09:38:38;94179.69;;;23.01;47.44
41062;BME280;26812;42.662;23.352;2022-09-29T09:41:06;94175.06;;;23.48;47.39
41062;BME280;26812;42.662;23.352;2022-09-29T09:43:39;94175.28;;;23.61;43.10
41062;BME280;26812;42.662;23.352;2022-09-29T09:46:22;94174.84;;;24.09;42.16
41062;BME280;26812;42.662;23.352;2022-09-29T09:49:17;94175.94;;;23.92;41.21
41062;BME280;26812;42.662;23.352;2022-09-29T09:54:46;94183.50;;;24.31;44.51
41062;BME280;26812;42.662;23.352;2022-09-29T10:00:09;94175.31;;;24.27;40.75
41062;BME280;26812;42.662;23.352;2022-09-29T10:02:47;94169.81;;;24.47;39.68
41062;BME280;26812;42.662;23.352;2022-09-29T10:05:16;94174.03;;;24.91;39.77
41062;BME280;26812;42.662;23.352;2022-09-29T10:07:43;94166.47;;;25.31;39.31
41062;BME280;26812;42.662;23.352;2022-09-29T10:10:20;94183.31;;;25.69;38.35
41062;BME280;26812;42.662;23.352;2022-09-29T10:18:20;94164.44;;;25.84;36.80
41062;BME280;26812;42.662;23.352;2022-09-29T10:20:47;94178.47;;;25.41;35.24
41062;BME280;26812;42.662;23.352;2022-09-29T10:23:26;94177.59;;;24.72;36.68
41062;BME280;26812;42.662;23.352;2022-09-29T10:28:39;94163.00;;;24.55;36.67
41062;BME280;26812;42.662;23.352;2022-09-29T10:31:28;94172.72;;;24.40;37.14
41062;BME280;26812;42.662;23.352;2022-09-29T10:37:00;94175.13;;;24.38;37.94
41062;BME280;26812;42.662;23.352;2022-09-29T10:39:42;94187.50;;;24.50;39.05
41062;BME280;26812;42.662;23.352;2022-09-29T10:42:24;94175.75;;;24.45;38.83
41062;BME280;26812;42.662;23.352;2022-09-29T10:45:12;94178.31;;;24.56;38.88
41062;BME280;26812;42.662;23.352;2022-09-29T10:47:40;94176.84;;;24.52;37.20
41062;BME280;26812;42.662;23.352;2022-09-29T10:50:10;94177.00;;;23.74;38.97
41062;BME280;26812;42.662;23.352;2022-09-29T10:52:36;94159.44;;;23.92;38.25
41062;BME280;26812;42.662;23.352;2022-09-29T10:55:15;94162.72;;;23.83;37.08
41062;BME280;26812;42.662;23.352;2022-09-29T10:57:41;94154.53;;;23.56;38.39
41062;BME280;26812;42.662;23.352;2022-09-29T11:00:24;94164.81;;;23.99;38.41
41062;BME280;26812;42.662;23.352;2022-09-29T11:02:51;94159.09;;;24.09;38.02
41062;BME280;26812;42.662;23.352;2022-09-29T11:05:22;94167.03;;;24.27;38.65
41062;BME280;26812;42.662;23.352;2022-09-29T11:07:50;94142.63;;;23.86;38.92
41062;BME280;26812;42.662;23.352;2022-09-29T11:10:29;94138.28;;;24.08;41.74
41062;BME280;26812;42.662;23.352;2022-09-29T11:12:56;94138.56;;;23.94;38.18
41062;BME280;26812;42.662;23.352;2022-09-29T11:15:24;94152.06;;;23.85;41.59
41062;BME280;26812;42.662;23.352;2022-09-29T11:17:50;94142.41;;;23.77;40.52
41062;BME280;26812;42.662;23.352;2022-09-29T11:20:16;94150.13;;;23.62;40.97
41062;BME280;26812;42.662;23.352;2022-09-29T11:23:04;94154.81;;;23.85;39.48
41062;BME280;26812;42.662;23.352;2022-09-29T11:28:21;94137.78;;;23.94;39.77
41062;BME280;26812;42.662;23.352;2022-09-29T11:44:57;94137.09;;;23.66;39.11
41062;BME280;26812;42.662;23.352;2022-09-29T11:58:32;94141.56;;;23.80;38.06
41062;BME280;26812;42.662;23.352;2022-09-29T12:06:50;94135.94;;;24.30;40.34
41062;BME280;26812;42.662;23.352;2022-09-29T12:14:40;94118.94;;;25.76;36.94
41062;BME280;26812;42.662;23.352;2022-09-29T12:17:13;94122.81;;;25.79;35.79
41062;BME280;26812;42.662;23.352;2022-09-29T12:19:42;94104.25;;;25.63;37.20
41062;BME280;26812;42.662;23.352;2022-09-29T12:22:14;94107.03;;;25.79;36.25
41062;BME280;26812;42.662;23.352;2022-09-29T12:24:49;94108.81;;;26.02;36.68
41062;BME280;26812;42.662;23.352;2022-09-29T12:27:23;94117.69;;;26.39;34.54
41062;BME280;26812;42.662;23.352;2022-09-29T12:35:25;94121.44;;;26.74;32.75
41062;BME280;26812;42.662;23.352;2022-09-29T12:38:18;94114.91;;;26.80;33.13
41062;BME280;26812;42.662;23.352;2022-09-29T12:41:02;94120.50;;;27.06;32.14
41062;BME280;26812;42.662;23.352;2022-09-29T12:47:18;94122.47;;;27.43;32.83
41062;BME280;26812;42.662;23.352;2022-09-29T12:50:10;94130.78;;;27.43;31.33
41062;BME280;26812;42.662;23.352;2022-09-29T12:53:15;94128.78;;;27.31;30.70
41062;BME280;26812;42.662;23.352;2022-09-29T12:56:09;94123.91;;;27.35;32.29
41062;BME280;26812;42.662;23.352;2022-09-29T12:58:46;94120.47;;;27.69;31.29
41062;BME280;26812;42.662;23.352;2022-09-29T13:06:55;94127.44;;;27.61;30.61
41062;BME280;26812;42.662;23.352;2022-09-29T13:17:01;94120.28;;;27.13;32.48
41062;BME280;26812;42.662;23.352;2022-09-29T13:19:41;94119.16;;;26.56;34.18
41062;BME280;26812;42.662;23.352;2022-09-29T13:27:39;94138.22;;;25.92;34.73
41062;BME280;26812;42.662;23.352;2022-09-29T13:30:17;94136.69;;;25.43;34.46
41062;BME280;26812;42.662;23.352;2022-09-29T13:33:09;94133.88;;;25.10;34.72
41062;BME280;26812;42.662;23.352;2022-09-29T13:35:41;94131.66;;;25.21;36.12
41062;BME280;26812;42.662;23.352;2022-09-29T13:38:13;94130.56;;;25.19;35.60
41062;BME280;26812;42.662;23.352;2022-09-29T13:41:13;94135.03;;;25.13;34.89
41062;BME280;26812;42.662;23.352;2022-09-29T13:54:42;94151.75;;;24.66;37.73
41062;BME280;26812;42.662;23.352;2022-09-29T13:59:45;94145.59;;;24.38;38.18
41062;BME280;26812;42.662;23.352;2022-09-29T14:02:19;94156.91;;;24.44;38.32
41062;BME280;26812;42.662;23.352;2022-09-29T14:04:52;94152.88;;;24.49;38.40
41062;BME280;26812;42.662;23.352;2022-09-29T14:13:11;94164.19;;;24.34;40.81
41062;BME280;26812;42.662;23.352;2022-09-29T14:15:43;94151.72;;;24.26;40.95
41062;BME280;26812;42.662;23.352;2022-09-29T14:18:31;94165.88;;;24.28;41.19
41062;BME280;26812;42.662;23.352;2022-09-29T14:21:03;94160.41;;;24.25;40.76
41062;BME280;26812;42.662;23.352;2022-09-29T14:26:42;94183.72;;;23.97;42.06
41062;BME280;26812;42.662;23.352;2022-09-29T14:29:15;94187.72;;;23.69;42.43
41062;BME280;26812;42.662;23.352;2022-09-29T14:31:44;94211.97;;;23.47;43.36
41062;BME280;26812;42.662;23.352;2022-09-29T14:34:13;94208.66;;;23.05;45.28
41062;BME280;26812;42.662;23.352;2022-09-29T14:36:40;94230.03;;;22.90;49.15
41062;BME280;26812;42.662;23.352;2022-09-29T14:39:12;94263.34;;;21.69;58.13
41062;BME280;26812;42.662;23.352;2022-09-29T14:41:41;94269.81;;;20.43;61.45
41062;BME280;26812;42.662;23.352;2022-09-29T14:44:11;94275.34;;;19.93;64.97
41062;BME280;26812;42.662;23.352;2022-09-29T14:55:11;94273.31;;;19.30;73.06
41062;BME280;26812;42.662;23.352;2022-09-29T15:00:22;94262.06;;;19.70;74.23
41062;BME280;26812;42.662;23.352;2022-09-29T15:02:53;94256.91;;;19.47;74.50
41062;BME280;26812;42.662;23.352;2022-09-29T15:05:24;94242.88;;;19.42;71.03
41062;BME280;26812;42.662;23.352;2022-09-29T15:07:50;94252.63;;;19.46;73.76
41062;BME280;26812;42.662;23.352;2022-09-29T15:10:28;94255.00;;;19.59;73.35
41062;BME280;26812;42.662;23.352;2022-09-29T15:13:16;94245.25;;;19.54;76.71
41062;BME280;26812;42.662;23.352;2022-09-29T15:15:46;94242.94;;;19.60;77.64
41062;BME280;26812;42.662;23.352;2022-09-29T15:20:48;94244.09;;;19.73;77.70
41062;BME280;26812;42.662;23.352;2022-09-29T15:23:45;94249.16;;;19.67;79.21
41062;BME280;26812;42.662;23.352;2022-09-29T15:26:17;94239.38;;;19.56;79.48
41062;BME280;26812;42.662;23.352;2022-09-29T15:28:44;94233.50;;;19.29;81.27
41062;BME280;26812;42.662;23.352;2022-09-29T15:31:15;94242.03;;;19.09;83.04
41062;BME280;26812;42.662;23.352;2022-09-29T15:33:42;94257.66;;;19.09;82.91
41062;BME280;26812;42.662;23.352;2022-09-29T15:36:18;94260.38;;;19.09;81.92
41062;BME280;26812;42.662;23.352;2022-09-29T15:38:45;94266.53;;;18.88;84.32
41062;BME280;26812;42.662;23.352;2022-09-29T15:44:00;94283.00;;;19.13;84.68
41062;BME280;26812;42.662;23.352;2022-09-29T15:51:37;94268.97;;;19.18;81.85
41062;BME280;26812;42.662;23.352;2022-09-29T15:54:03;94268.88;;;18.86;78.15
41062;BME280;26812;42.662;23.352;2022-09-29T15:56:30;94278.63;;;18.87;80.42
41062;BME280;26812;42.662;23.352;2022-09-29T15:58:56;94279.41;;;18.91;78.28
41062;BME280;26812;42.662;23.352;2022-09-29T16:01:23;94275.09;;;18.79;79.42
41062;BME280;26812;42.662;23.352;2022-09-29T16:06:34;94266.94;;;18.93;79.69
41062;BME280;26812;42.662;23.352;2022-09-29T16:09:05;94276.31;;;18.96;81.77
41062;BME280;26812;42.662;23.352;2022-09-29T16:11:38;94279.38;;;18.80;82.07
41062;BME280;26812;42.662;23.352;2022-09-29T16:16:36;94290.94;;;18.56;81.22